Time;durP1;ratioP1;P1;durP2;ratioP2;P2;SDS_P1;SDS_P2;PMS_P1;PMS_P2;Temp;Humidity;BMP_temperature;BMP_pressure;BME280_temperature;BME280_humidity;BME280_pressure;Samples;Min_cycle;Max_cycle;Signal;HPM_P1;HPM_P2
2023/11/17 00:01:48;;;;;;;0.20;0.20;;;;;;;;;;5054433;28;20026;-79
2023/11/17 00:04:14;;;;;;;0.30;0.30;;;;;;;;;;5058292;28;20067;-78
2023/11/17 00:06:41;;;;;;;0.38;0.38;;;;;;;;;;5070120;28;20029;-78
2023/11/17 00:09:10;;;;;;;0.68;0.32;;;;;;;;;;5060795;28;20040;-79
2023/11/17 00:11:37;;;;;;;0.57;0.52;;;;;;;;;;5063548;28;20415;-78
2023/11/17 00:14:03;;;;;;;2.10;0.40;;;;;;;;;;5064635;28;20017;-79
2023/11/17 00:16:30;;;;;;;1.65;0.90;;;;;;;;;;5063319;28;20364;-79
2023/11/17 00:18:56;;;;;;;3.05;0.98;;;;;;;;;;5064740;28;20478;-80
2023/11/17 00:21:22;;;;;;;1.58;0.65;;;;;;;;;;5080385;28;20032;-78
2023/11/17 00:23:49;;;;;;;5.25;1.40;;;;;;;;;;5060896;28;20375;-78
2023/11/17 00:26:15;;;;;;;4.40;2.00;;;;;;;;;;5059572;28;20045;-79
2023/11/17 00:28:42;;;;;;;3.10;1.08;;;;;;;;;;5060298;28;20025;-79
2023/11/17 00:31:09;;;;;;;1.40;0.82;;;;;;;;;;5060206;28;20021;-78
2023/11/17 00:33:36;;;;;;;2.97;1.10;;;;;;;;;;5068405;28;20091;-79
2023/11/17 00:36:02;;;;;;;0.77;0.70;;;;;;;;;;5081115;28;20024;-79
2023/11/17 00:38:31;;;;;;;0.57;0.57;;;;;;;;;;5062289;28;20036;-79
2023/11/17 00:40:59;;;;;;;1.95;0.90;;;;;;;;;;5061120;28;20084;-78
2023/11/17 00:43:25;;;;;;;1.13;1.00;;;;;;;;;;5083547;28;20051;-79
2023/11/17 00:45:57;;;;;;;0.63;0.52;;;;;;;;;;5081513;28;20029;-77
2023/11/17 00:48:23;;;;;;;0.95;0.73;;;;;;;;;;5069695;28;20104;-78
2023/11/17 00:50:49;;;;;;;0.90;0.82;;;;;;;;;;5082443;28;20040;-78
2023/11/17 00:53:17;;;;;;;1.58;0.90;;;;;;;;;;5080428;28;20040;-79
2023/11/17 00:55:43;;;;;;;2.58;0.82;;;;;;;;;;5073703;28;20043;-77
2023/11/17 00:58:09;;;;;;;2.08;1.55;;;;;;;;;;5071646;28;20073;-81
2023/11/17 01:00:35;;;;;;;3.25;2.50;;;;;;;;;;5071829;28;20021;-79
2023/11/17 01:03:01;;;;;;;5.35;3.55;;;;;;;;;;5061976;28;20041;-78
2023/11/17 01:05:27;;;;;;;2.80;2.50;;;;;;;;;;5070500;28;20032;-79
2023/11/17 01:07:56;;;;;;;2.53;2.33;;;;;;;;;;5064570;28;20390;-79
2023/11/17 01:10:23;;;;;;;3.85;2.58;;;;;;;;;;5075362;28;20021;-79
2023/11/17 01:12:52;;;;;;;2.30;2.10;;;;;;;;;;5068189;28;20024;-79
2023/11/17 01:15:19;;;;;;;2.40;2.20;;;;;;;;;;5065354;28;20017;-79
2023/11/17 01:17:45;;;;;;;2.30;2.10;;;;;;;;;;5068872;28;20104;-77
2023/11/17 01:20:12;;;;;;;3.13;2.80;;;;;;;;;;5059278;28;20029;-79
2023/11/17 01:22:39;;;;;;;2.33;2.13;;;;;;;;;;5072102;28;20084;-79
2023/11/17 01:25:05;;;;;;;3.67;2.20;;;;;;;;;;5073629;28;20073;-78
2023/11/17 01:27:31;;;;;;;2.20;1.83;;;;;;;;;;5084697;28;20039;-78
2023/11/17 01:29:57;;;;;;;1.65;1.55;;;;;;;;;;5065414;28;20031;-79
2023/11/17 01:32:23;;;;;;;1.70;1.60;;;;;;;;;;5080735;28;20033;-79
2023/11/17 01:34:49;;;;;;;1.98;1.80;;;;;;;;;;5076540;28;20430;-78
2023/11/17 01:37:15;;;;;;;1.73;1.50;;;;;;;;;;5068225;28;20538;-79
2023/11/17 01:39:42;;;;;;;1.40;1.13;;;;;;;;;;5068154;28;20024;-78
2023/11/17 01:42:08;;;;;;;0.73;0.73;;;;;;;;;;5076324;28;20028;-78
2023/11/17 01:44:34;;;;;;;0.95;0.90;;;;;;;;;;5076939;28;20088;-77
2023/11/17 01:47:00;;;;;;;2.58;1.27;;;;;;;;;;5093601;28;20012;-78
2023/11/17 01:49:26;;;;;;;0.80;0.80;;;;;;;;;;5091473;28;20049;-77
2023/11/17 01:51:52;;;;;;;1.10;1.08;;;;;;;;;;5093538;28;20025;-77
2023/11/17 01:54:19;;;;;;;3.28;1.10;;;;;;;;;;5080278;28;20048;-79
2023/11/17 01:56:46;;;;;;;0.70;0.70;;;;;;;;;;5080336;28;20024;-78
2023/11/17 01:59:12;;;;;;;0.63;0.63;;;;;;;;;;5092769;28;20033;-78
2023/11/17 02:01:38;;;;;;;0.45;0.45;;;;;;;;;;5094880;28;20031;-77
2023/11/17 02:04:04;;;;;;;0.60;0.60;;;;;;;;;;5092626;28;20189;-78
2023/11/17 02:06:31;;;;;;;0.82;0.82;;;;;;;;;;5083615;28;20021;-79
2023/11/17 02:09:01;;;;;;;0.77;0.70;;;;;;;;;;5086651;28;20024;-79
2023/11/17 02:11:35;;;;;;;0.68;0.68;;;;;;;;;;5078207;28;20036;-78
2023/11/17 02:14:06;;;;;;;0.80;0.80;;;;;;;;;;5087129;28;20013;-78
2023/11/17 02:16:35;;;;;;;0.60;0.60;;;;;;;;;;5087632;28;20016;-78
2023/11/17 02:19:04;;;;;;;0.73;0.73;;;;;;;;;;5083345;28;20019;-79
2023/11/17 02:21:31;;;;;;;0.82;0.82;;;;;;;;;;5074160;28;20040;-80
2023/11/17 02:23:59;;;;;;;0.60;0.60;;;;;;;;;;5071610;28;20052;-80
2023/11/17 02:26:33;;;;;;;0.70;0.70;;;;;;;;;;5062516;28;20491;-80
2023/11/17 02:29:07;;;;;;;0.57;0.57;;;;;;;;;;5058388;28;20104;-79
2023/11/17 02:31:35;;;;;;;1.55;0.50;;;;;;;;;;5056288;28;20045;-79
2023/11/17 02:34:08;;;;;;;0.35;0.35;;;;;;;;;;5075550;28;20032;-78
2023/11/17 02:36:35;;;;;;;0.40;0.40;;;;;;;;;;5080333;28;20017;-81
2023/11/17 02:39:15;;;;;;;0.98;0.30;;;;;;;;;;5064581;28;20103;-81
2023/11/17 02:41:56;;;;;;;0.20;0.20;;;;;;;;;;5070656;28;20379;-80
2023/11/17 02:44:28;;;;;;;0.40;0.40;;;;;;;;;;5064965;28;20033;-81
2023/11/17 02:46:58;;;;;;;1.57;0.40;;;;;;;;;;5071761;28;20036;-81
2023/11/17 02:49:33;;;;;;;0.45;0.45;;;;;;;;;;5065776;28;20352;-81
2023/11/17 02:52:03;;;;;;;0.52;0.52;;;;;;;;;;5070287;28;20020;-80
2023/11/17 02:54:29;;;;;;;0.60;0.60;;;;;;;;;;5082254;28;20029;-78
2023/11/17 02:56:56;;;;;;;0.30;0.30;;;;;;;;;;5077939;28;20017;-77
2023/11/17 02:59:22;;;;;;;0.52;0.52;;;;;;;;;;5078175;28;20021;-77
2023/11/17 03:01:52;;;;;;;0.57;0.55;;;;;;;;;;5081453;28;20033;-78
2023/11/17 03:04:18;;;;;;;0.85;0.70;;;;;;;;;;5079580;28;20036;-80
2023/11/17 03:06:48;;;;;;;0.70;0.70;;;;;;;;;;5077199;28;20474;-80
2023/11/17 03:09:22;;;;;;;1.27;0.55;;;;;;;;;;5066323;28;20086;-79
2023/11/17 03:11:52;;;;;;;0.82;0.80;;;;;;;;;;5077075;28;20025;-79
2023/11/17 03:14:18;;;;;;;0.98;0.50;;;;;;;;;;5079794;28;20019;-81
2023/11/17 03:16:49;;;;;;;0.85;0.60;;;;;;;;;;5072170;28;20021;-81
2023/11/17 03:19:15;;;;;;;0.60;0.60;;;;;;;;;;5072465;28;20428;-79
2023/11/17 03:21:41;;;;;;;0.55;0.55;;;;;;;;;;5081990;28;20031;-81
2023/11/17 03:24:18;;;;;;;0.68;0.68;;;;;;;;;;5075657;28;20030;-81
2023/11/17 03:26:45;;;;;;;0.45;0.45;;;;;;;;;;5062323;28;20116;-80
2023/11/17 03:29:12;;;;;;;0.70;0.60;;;;;;;;;;5074619;28;20017;-81
2023/11/17 03:31:38;;;;;;;0.60;0.60;;;;;;;;;;5058543;28;20388;-80
2023/11/17 03:34:09;;;;;;;1.13;0.55;;;;;;;;;;5057911;28;20120;-79
2023/11/17 03:36:35;;;;;;;0.57;0.57;;;;;;;;;;5060347;28;20021;-80
2023/11/17 03:39:02;;;;;;;1.00;0.63;;;;;;;;;;5065650;28;20032;-79
2023/11/17 03:41:28;;;;;;;0.90;0.90;;;;;;;;;;5059907;28;20021;-81
2023/11/17 03:43:54;;;;;;;1.48;0.90;;;;;;;;;;5049932;28;20021;-80
2023/11/17 03:46:21;;;;;;;0.90;0.90;;;;;;;;;;5059677;28;20036;-80
2023/11/17 03:48:48;;;;;;;0.88;0.70;;;;;;;;;;5078463;28;20025;-80
2023/11/17 03:51:15;;;;;;;0.75;0.75;;;;;;;;;;5065925;28;20013;-80
2023/11/17 03:53:43;;;;;;;1.10;0.90;;;;;;;;;;5060566;28;20025;-81
2023/11/17 03:56:09;;;;;;;0.60;0.60;;;;;;;;;;5060538;28;20009;-81
2023/11/17 03:58:35;;;;;;;1.23;1.00;;;;;;;;;;5068065;28;20372;-80
2023/11/17 04:01:02;;;;;;;0.68;0.68;;;;;;;;;;5057625;28;20017;-78
2023/11/17 04:03:28;;;;;;;0.60;0.60;;;;;;;;;;5056096;28;20124;-78
2023/11/17 04:05:54;;;;;;;0.70;0.70;;;;;;;;;;5070259;28;20040;-79
2023/11/17 04:08:20;;;;;;;0.70;0.70;;;;;;;;;;5061361;28;20029;-79
2023/11/17 04:10:46;;;;;;;0.75;0.75;;;;;;;;;;5072020;28;20028;-79
2023/11/17 04:13:14;;;;;;;0.77;0.77;;;;;;;;;;5061224;28;20017;-79
2023/11/17 04:15:40;;;;;;;1.13;1.10;;;;;;;;;;5072884;28;20070;-78
2023/11/17 04:18:06;;;;;;;0.77;0.73;;;;;;;;;;5089565;28;20021;-78
2023/11/17 04:20:32;;;;;;;0.70;0.70;;;;;;;;;;5072680;28;20040;-78
2023/11/17 04:23:00;;;;;;;0.45;0.45;;;;;;;;;;5068571;28;20104;-79
2023/11/17 04:25:26;;;;;;;0.77;0.40;;;;;;;;;;5063605;28;20027;-78
2023/11/17 04:27:52;;;;;;;0.50;0.50;;;;;;;;;;5056045;28;20024;-78
2023/11/17 04:30:18;;;;;;;1.45;0.50;;;;;;;;;;5059427;28;20056;-81
2023/11/17 04:32:44;;;;;;;0.50;0.50;;;;;;;;;;5058162;28;20028;-79
2023/11/17 04:35:12;;;;;;;0.50;0.40;;;;;;;;;;5063807;28;20111;-78
2023/11/17 04:37:38;;;;;;;0.60;0.60;;;;;;;;;;5062283;28;20039;-77
2023/11/17 04:40:05;;;;;;;0.52;0.30;;;;;;;;;;5059947;28;20021;-77
2023/11/17 04:42:31;;;;;;;0.40;0.40;;;;;;;;;;5056975;28;20395;-76
2023/11/17 04:44:57;;;;;;;0.35;0.35;;;;;;;;;;5059660;28;20028;-76
2023/11/17 04:47:25;;;;;;;0.40;0.40;;;;;;;;;;5055919;28;20066;-76
2023/11/17 04:49:51;;;;;;;0.40;0.40;;;;;;;;;;5054073;28;20509;-77
2023/11/17 04:52:17;;;;;;;0.22;0.22;;;;;;;;;;5062331;28;20025;-76
2023/11/17 04:54:46;;;;;;;0.30;0.30;;;;;;;;;;5058449;28;20029;-77
2023/11/17 04:57:14;;;;;;;0.40;0.40;;;;;;;;;;5055115;28;20016;-77
2023/11/17 04:59:41;;;;;;;0.20;0.20;;;;;;;;;;5054436;28;20551;-77
2023/11/17 05:02:07;;;;;;;0.40;0.40;;;;;;;;;;5052051;28;20040;-76
2023/11/17 05:04:34;;;;;;;0.40;0.30;;;;;;;;;;5064278;28;20437;-76
2023/11/17 05:07:00;;;;;;;0.20;0.20;;;;;;;;;;5064792;28;20025;-77
2023/11/17 05:09:26;;;;;;;0.57;0.40;;;;;;;;;;5060799;28;20017;-75
2023/11/17 05:11:52;;;;;;;0.20;0.20;;;;;;;;;;5075920;28;20025;-76
2023/11/17 05:14:18;;;;;;;0.20;0.20;;;;;;;;;;5076362;28;20028;-75
2023/11/17 05:16:45;;;;;;;0.10;0.10;;;;;;;;;;5076071;28;20028;-75
2023/11/17 05:19:13;;;;;;;0.30;0.30;;;;;;;;;;5076030;28;20036;-74
2023/11/17 05:21:39;;;;;;;0.20;0.20;;;;;;;;;;5076206;28;20068;-75
2023/11/17 05:24:06;;;;;;;0.32;0.30;;;;;;;;;;5075577;28;20021;-76
2023/11/17 05:26:33;;;;;;;0.20;0.20;;;;;;;;;;5084460;28;20017;-73
2023/11/17 05:29:00;;;;;;;0.20;0.20;;;;;;;;;;5075711;28;20100;-74
2023/11/17 05:31:27;;;;;;;0.20;0.20;;;;;;;;;;5076222;28;20052;-74
2023/11/17 05:33:54;;;;;;;0.28;0.28;;;;;;;;;;5076611;28;20005;-75
2023/11/17 05:36:20;;;;;;;0.10;0.10;;;;;;;;;;5076699;28;20059;-75
2023/11/17 05:38:48;;;;;;;0.25;0.25;;;;;;;;;;5075623;28;20017;-75
2023/11/17 05:41:14;;;;;;;0.20;0.20;;;;;;;;;;5075670;28;20025;-74
2023/11/17 05:43:45;;;;;;;0.20;0.20;;;;;;;;;;5075301;28;20037;-74
2023/11/17 05:46:12;;;;;;;0.03;0.03;;;;;;;;;;5075513;28;20048;-77
2023/11/17 05:48:38;;;;;;;0.22;0.22;;;;;;;;;;5075124;28;20033;-73
2023/11/17 05:51:09;;;;;;;0.20;0.20;;;;;;;;;;5083451;28;20027;-75
2023/11/17 05:53:37;;;;;;;0.20;0.20;;;;;;;;;;5078280;28;20029;-75
2023/11/17 05:56:04;;;;;;;0.30;0.30;;;;;;;;;;5073324;28;20017;-76
2023/11/17 05:58:30;;;;;;;0.20;0.20;;;;;;;;;;5081249;28;20033;-75
2023/11/17 06:00:56;;;;;;;0.20;0.20;;;;;;;;;;5075575;28;20012;-75
2023/11/17 06:03:22;;;;;;;0.75;0.30;;;;;;;;;;5075714;28;20036;-75
2023/11/17 06:05:48;;;;;;;0.30;0.30;;;;;;;;;;5083351;28;20021;-75
2023/11/17 06:08:14;;;;;;;0.30;0.30;;;;;;;;;;5074846;28;20036;-76
2023/11/17 06:10:40;;;;;;;0.20;0.20;;;;;;;;;;5075319;28;20028;-75
2023/11/17 06:13:07;;;;;;;0.30;0.30;;;;;;;;;;5075970;28;20086;-77
2023/11/17 06:15:34;;;;;;;0.15;0.15;;;;;;;;;;5083003;28;20025;-75
2023/11/17 06:18:04;;;;;;;0.32;0.20;;;;;;;;;;5076065;28;20017;-76
2023/11/17 06:20:30;;;;;;;0.30;0.30;;;;;;;;;;5082650;28;20032;-75
2023/11/17 06:22:57;;;;;;;0.30;0.30;;;;;;;;;;5090867;28;20036;-76
2023/11/17 06:25:25;;;;;;;0.20;0.20;;;;;;;;;;5090456;28;20013;-75
2023/11/17 06:27:52;;;;;;;0.20;0.20;;;;;;;;;;5084298;28;20104;-76
2023/11/17 06:30:18;;;;;;;0.30;0.30;;;;;;;;;;5082685;28;20025;-76
2023/11/17 06:32:45;;;;;;;0.10;0.10;;;;;;;;;;5088010;28;20005;-74
2023/11/17 06:35:11;;;;;;;0.40;0.40;;;;;;;;;;5078265;28;20087;-76
2023/11/17 06:37:38;;;;;;;0.20;0.20;;;;;;;;;;5092864;28;20062;-76
2023/11/17 06:40:09;;;;;;;0.13;0.13;;;;;;;;;;5076919;28;20055;-75
2023/11/17 06:42:35;;;;;;;0.10;0.10;;;;;;;;;;5074715;28;20098;-76
2023/11/17 06:45:01;;;;;;;0.20;0.20;;;;;;;;;;5079894;28;20025;-76
2023/11/17 06:47:27;;;;;;;0.30;0.30;;;;;;;;;;5075509;28;20033;-77
2023/11/17 06:49:55;;;;;;;0.20;0.20;;;;;;;;;;5075762;28;21215;-75
2023/11/17 06:52:21;;;;;;;0.20;0.20;;;;;;;;;;5070061;28;20032;-76
2023/11/17 06:54:47;;;;;;;0.30;0.30;;;;;;;;;;5075222;28;20051;-75
2023/11/17 06:57:13;;;;;;;0.17;0.10;;;;;;;;;;5091037;28;20025;-76
2023/11/17 06:59:40;;;;;;;0.30;0.30;;;;;;;;;;5079482;28;20029;-77
2023/11/17 07:02:07;;;;;;;0.17;0.17;;;;;;;;;;5075301;28;20086;-76
2023/11/17 07:04:33;;;;;;;0.10;0.10;;;;;;;;;;5093255;28;20012;-76
2023/11/17 07:06:59;;;;;;;0.20;0.20;;;;;;;;;;5078489;28;20099;-75
2023/11/17 07:09:30;;;;;;;0.20;0.20;;;;;;;;;;5077005;28;20059;-75
2023/11/17 07:12:00;;;;;;;0.20;0.20;;;;;;;;;;5076078;28;20055;-75
2023/11/17 07:14:26;;;;;;;0.20;0.20;;;;;;;;;;5079088;28;20031;-77
2023/11/17 07:16:54;;;;;;;0.13;0.13;;;;;;;;;;5069712;28;20136;-76
2023/11/17 07:19:20;;;;;;;0.40;0.40;;;;;;;;;;5071692;28;20060;-75
2023/11/17 07:21:47;;;;;;;0.28;0.28;;;;;;;;;;5070332;28;20036;-75
2023/11/17 07:24:14;;;;;;;0.32;0.30;;;;;;;;;;5082814;28;20017;-75
2023/11/17 07:26:41;;;;;;;0.20;0.20;;;;;;;;;;5082799;28;20048;-75
2023/11/17 07:29:07;;;;;;;0.30;0.30;;;;;;;;;;5063313;28;20453;-75
2023/11/17 07:31:40;;;;;;;0.20;0.20;;;;;;;;;;5056052;28;20059;-76
2023/11/17 07:34:09;;;;;;;0.20;0.20;;;;;;;;;;5066499;28;20025;-76
2023/11/17 07:36:38;;;;;;;0.22;0.22;;;;;;;;;;5058142;28;20384;-76
2023/11/17 07:39:06;;;;;;;0.40;0.40;;;;;;;;;;5051853;28;20032;-77
2023/11/17 07:41:35;;;;;;;0.32;0.30;;;;;;;;;;5060731;28;20025;-76
2023/11/17 07:44:02;;;;;;;0.63;0.30;;;;;;;;;;5054947;28;20391;-75
2023/11/17 07:46:28;;;;;;;0.20;0.20;;;;;;;;;;5057119;28;20033;-74
2023/11/17 07:48:55;;;;;;;0.40;0.40;;;;;;;;;;5073719;28;20032;-75
2023/11/17 07:51:21;;;;;;;0.20;0.20;;;;;;;;;;5059642;28;20021;-77
2023/11/17 07:53:47;;;;;;;0.30;0.30;;;;;;;;;;5058377;28;20033;-77
2023/11/17 07:56:14;;;;;;;0.20;0.20;;;;;;;;;;5065739;28;20047;-76
2023/11/17 07:58:41;;;;;;;0.40;0.40;;;;;;;;;;5064055;28;20029;-76
2023/11/17 08:01:08;;;;;;;0.30;0.30;;;;;;;;;;5052663;28;20036;-76
2023/11/17 08:03:37;;;;;;;0.52;0.25;;;;;;;;;;5059440;28;20040;-76
2023/11/17 08:06:06;;;;;;;0.50;0.50;;;;;;;;;;5053591;28;20043;-76
2023/11/17 08:08:33;;;;;;;0.32;0.32;;;;;;;;;;5066203;28;20028;-76
2023/11/17 08:11:00;;;;;;;0.35;0.35;;;;;;;;;;5072268;28;20020;-76
2023/11/17 08:13:26;;;;;;;0.20;0.20;;;;;;;;;;5064395;28;20020;-77
2023/11/17 08:15:54;;;;;;;0.30;0.30;;;;;;;;;;5067340;28;20024;-76
2023/11/17 08:18:20;;;;;;;0.40;0.40;;;;;;;;;;5063828;28;20028;-77
2023/11/17 08:20:47;;;;;;;0.30;0.30;;;;;;;;;;5065358;28;20056;-75
2023/11/17 08:23:19;;;;;;;0.45;0.45;;;;;;;;;;5074844;28;20059;-76
2023/11/17 08:25:45;;;;;;;0.30;0.20;;;;;;;;;;5061992;28;20395;-76
2023/11/17 08:28:11;;;;;;;0.55;0.20;;;;;;;;;;5073789;28;20086;-76
2023/11/17 08:30:41;;;;;;;0.22;0.22;;;;;;;;;;5064008;28;20032;-77
2023/11/17 08:33:07;;;;;;;0.20;0.20;;;;;;;;;;5082044;28;20411;-77
2023/11/17 08:35:33;;;;;;;0.20;0.20;;;;;;;;;;5061876;28;20031;-76
2023/11/17 08:37:59;;;;;;;0.35;0.35;;;;;;;;;;5072321;28;20032;-75
2023/11/17 08:40:25;;;;;;;0.35;0.35;;;;;;;;;;5063456;28;20032;-77
2023/11/17 08:42:52;;;;;;;0.40;0.40;;;;;;;;;;5068247;28;20406;-75
2023/11/17 08:45:18;;;;;;;0.22;0.22;;;;;;;;;;5058542;28;20032;-76
2023/11/17 08:47:45;;;;;;;0.25;0.25;;;;;;;;;;5051670;28;20036;-77
2023/11/17 08:50:13;;;;;;;0.30;0.30;;;;;;;;;;5055085;28;20028;-77
2023/11/17 08:52:42;;;;;;;0.52;0.35;;;;;;;;;;5057546;28;20361;-76
2023/11/17 08:55:09;;;;;;;0.40;0.40;;;;;;;;;;5056541;28;20040;-76
2023/11/17 08:57:35;;;;;;;0.28;0.28;;;;;;;;;;5061042;28;20440;-75
2023/11/17 09:00:13;;;;;;;0.30;0.30;;;;;;;;;;5062895;28;20036;-76
2023/11/17 09:02:39;;;;;;;0.30;0.30;;;;;;;;;;5055375;28;20506;-76
2023/11/17 09:05:08;;;;;;;0.15;0.15;;;;;;;;;;5074661;28;20039;-74
2023/11/17 09:07:37;;;;;;;0.38;0.25;;;;;;;;;;5059766;28;20028;-76
2023/11/17 09:10:03;;;;;;;0.30;0.30;;;;;;;;;;5055742;28;20025;-75
2023/11/17 09:12:31;;;;;;;0.40;0.40;;;;;;;;;;5065256;28;20099;-76
2023/11/17 09:14:58;;;;;;;0.30;0.30;;;;;;;;;;5056005;28;20120;-74
2023/11/17 09:17:24;;;;;;;0.35;0.35;;;;;;;;;;5060234;28;20029;-75
2023/11/17 09:19:50;;;;;;;0.50;0.50;;;;;;;;;;5055020;28;20118;-76
2023/11/17 09:22:16;;;;;;;0.30;0.30;;;;;;;;;;5063173;28;20027;-76
2023/11/17 09:24:42;;;;;;;0.65;0.65;;;;;;;;;;5061397;28;20025;-75
2023/11/17 09:27:09;;;;;;;0.57;0.57;;;;;;;;;;5068834;28;20031;-74
2023/11/17 09:29:35;;;;;;;0.47;0.47;;;;;;;;;;5059553;28;20075;-76
2023/11/17 09:32:02;;;;;;;0.40;0.40;;;;;;;;;;5068461;28;20034;-75
2023/11/17 09:34:28;;;;;;;0.40;0.40;;;;;;;;;;5079653;28;20032;-75
2023/11/17 09:36:55;;;;;;;0.32;0.32;;;;;;;;;;5077218;28;20076;-74
2023/11/17 09:39:21;;;;;;;0.40;0.40;;;;;;;;;;5055409;28;20605;-74
2023/11/17 09:41:47;;;;;;;0.30;0.30;;;;;;;;;;5054901;28;20086;-75
2023/11/17 09:44:14;;;;;;;0.50;0.50;;;;;;;;;;5063100;28;20025;-75
2023/11/17 09:46:42;;;;;;;0.47;0.45;;;;;;;;;;5060230;28;20037;-75
2023/11/17 09:49:10;;;;;;;0.50;0.50;;;;;;;;;;5058772;28;20099;-75
2023/11/17 09:51:37;;;;;;;0.40;0.40;;;;;;;;;;5063774;28;20032;-75
2023/11/17 09:54:04;;;;;;;0.57;0.57;;;;;;;;;;5068510;28;20048;-75
2023/11/17 09:56:30;;;;;;;1.10;0.80;;;;;;;;;;5058422;28;20364;-76
2023/11/17 09:58:58;;;;;;;0.50;0.50;;;;;;;;;;5065218;28;20041;-76
2023/11/17 10:01:28;;;;;;;0.50;0.50;;;;;;;;;;5063795;28;20031;-74
2023/11/17 10:03:59;;;;;;;0.47;0.47;;;;;;;;;;5054599;28;20036;-75
2023/11/17 10:06:26;;;;;;;0.50;0.50;;;;;;;;;;5058010;28;20471;-76
2023/11/17 10:08:53;;;;;;;0.52;0.52;;;;;;;;;;5067949;28;20044;-75
2023/11/17 10:11:20;;;;;;;0.38;0.38;;;;;;;;;;5062838;28;20059;-75
2023/11/17 10:13:47;;;;;;;0.40;0.40;;;;;;;;;;5057320;28;20127;-76
2023/11/17 10:16:14;;;;;;;0.43;0.43;;;;;;;;;;5058428;28;20069;-76
2023/11/17 10:18:42;;;;;;;0.50;0.50;;;;;;;;;;5067072;28;20428;-77
2023/11/17 10:21:10;;;;;;;0.30;0.30;;;;;;;;;;5067716;28;20106;-76
2023/11/17 10:23:39;;;;;;;1.20;0.45;;;;;;;;;;5058197;28;20037;-76
2023/11/17 10:26:07;;;;;;;0.40;0.40;;;;;;;;;;5060682;28;20024;-75
2023/11/17 10:28:35;;;;;;;0.65;0.47;;;;;;;;;;5057826;28;20022;-76
2023/11/17 10:31:21;;;;;;;;;;;;;;;;;;;;;
2023/11/17 10:33:53;;;;;;;0.30;0.30;;;;;;;;;;5107238;28;20068;-81
2023/11/17 10:36:20;;;;;;;0.40;0.40;;;;;;;;;;5105539;28;20024;-80
2023/11/17 10:38:47;;;;;;;0.30;0.30;;;;;;;;;;5103976;28;20019;-80
2023/11/17 10:41:30;;;;;;;0.40;0.40;;;;;;;;;;5091154;28;20575;-79
2023/11/17 10:43:59;;;;;;;0.30;0.30;;;;;;;;;;5108718;28;20016;-80
2023/11/17 10:46:39;;;;;;;0.40;0.40;;;;;;;;;;5097274;28;20043;-79
2023/11/17 10:49:05;;;;;;;0.10;0.10;;;;;;;;;;5093500;28;20074;-80
2023/11/17 10:51:32;;;;;;;0.20;0.20;;;;;;;;;;5110036;28;20073;-80
2023/11/17 10:54:02;;;;;;;0.30;0.30;;;;;;;;;;5102969;28;20013;-79
2023/11/17 10:56:28;;;;;;;0.35;0.35;;;;;;;;;;5105802;28;20114;-80
2023/11/17 10:58:56;;;;;;;0.22;0.22;;;;;;;;;;5108720;28;20024;-80
2023/11/17 11:01:22;;;;;;;0.20;0.20;;;;;;;;;;5086172;28;20016;-80
2023/11/17 11:03:49;;;;;;;0.30;0.30;;;;;;;;;;5104617;28;20012;-79
2023/11/17 11:06:16;;;;;;;0.30;0.30;;;;;;;;;;5096887;28;20032;-80
2023/11/17 11:08:53;;;;;;;0.20;0.20;;;;;;;;;;5096788;28;20024;-80
2023/11/17 11:11:25;;;;;;;0.25;0.25;;;;;;;;;;5092213;28;20083;-80
2023/11/17 11:13:58;;;;;;;0.15;0.15;;;;;;;;;;5109971;28;20031;-80
2023/11/17 11:16:25;;;;;;;0.20;0.20;;;;;;;;;;5105986;28;20054;-83
2023/11/17 11:18:58;;;;;;;0.20;0.20;;;;;;;;;;5098589;28;20012;-83
2023/11/17 11:21:27;;;;;;;0.68;0.40;;;;;;;;;;5082684;28;20039;-79
2023/11/17 11:24:01;;;;;;;0.20;0.20;;;;;;;;;;5089674;28;20044;-83
2023/11/17 11:26:27;;;;;;;0.30;0.20;;;;;;;;;;5092210;28;20024;-79
2023/11/17 11:28:54;;;;;;;0.30;0.30;;;;;;;;;;5090899;28;20040;-80
2023/11/17 11:31:21;;;;;;;0.30;0.30;;;;;;;;;;5097015;28;20035;-80
2023/11/17 11:33:47;;;;;;;0.50;0.40;;;;;;;;;;5073137;28;20029;-82
2023/11/17 11:36:14;;;;;;;0.35;0.35;;;;;;;;;;5085913;28;20055;-80
2023/11/17 11:38:40;;;;;;;0.30;0.30;;;;;;;;;;5099635;28;20050;-79
2023/11/17 11:41:15;;;;;;;0.30;0.30;;;;;;;;;;5094926;28;20028;-79
2023/11/17 11:43:44;;;;;;;0.20;0.20;;;;;;;;;;5098915;28;20020;-80
2023/11/17 11:46:11;;;;;;;0.30;0.30;;;;;;;;;;5092896;28;20495;-79
2023/11/17 11:48:38;;;;;;;0.30;0.30;;;;;;;;;;5084140;28;20118;-80
2023/11/17 11:51:10;;;;;;;0.30;0.30;;;;;;;;;;5094109;28;20012;-80
2023/11/17 11:53:50;;;;;;;0.28;0.28;;;;;;;;;;5096535;28;20036;-80
2023/11/17 11:56:18;;;;;;;0.32;0.32;;;;;;;;;;5103330;28;20513;-80
2023/11/17 11:58:46;;;;;;;0.35;0.35;;;;;;;;;;5089806;28;20042;-80
2023/11/17 12:01:16;;;;;;;0.30;0.30;;;;;;;;;;5098142;28;20024;-79
2023/11/17 12:03:44;;;;;;;0.40;0.40;;;;;;;;;;5088474;28;20027;-79
2023/11/17 12:06:13;;;;;;;0.30;0.30;;;;;;;;;;5106300;28;20099;-80
2023/11/17 12:08:51;;;;;;;0.40;0.40;;;;;;;;;;5100826;28;20082;-79
2023/11/17 12:11:18;;;;;;;0.93;0.60;;;;;;;;;;5091854;28;20105;-79
2023/11/17 12:13:48;;;;;;;0.75;0.28;;;;;;;;;;5094084;28;20052;-79
2023/11/17 12:16:29;;;;;;;0.40;0.40;;;;;;;;;;5088262;28;20076;-80
2023/11/17 12:18:58;;;;;;;0.20;0.20;;;;;;;;;;5096182;28;20024;-80
2023/11/17 12:21:25;;;;;;;0.45;0.40;;;;;;;;;;5087484;28;20052;-78
2023/11/17 12:23:55;;;;;;;0.35;0.35;;;;;;;;;;5080286;28;20040;-79
2023/11/17 12:26:24;;;;;;;0.50;0.50;;;;;;;;;;5080316;28;20028;-79
2023/11/17 12:28:50;;;;;;;0.50;0.50;;;;;;;;;;5080182;28;20045;-80
2023/11/17 12:31:16;;;;;;;0.47;0.47;;;;;;;;;;5078685;28;20025;-79
2023/11/17 12:33:43;;;;;;;0.47;0.47;;;;;;;;;;5079533;28;20024;-79
2023/11/17 12:36:13;;;;;;;0.60;0.60;;;;;;;;;;5078138;28;20095;-80
2023/11/17 12:38:41;;;;;;;0.60;0.60;;;;;;;;;;5079164;28;20021;-78
2023/11/17 12:41:10;;;;;;;0.50;0.50;;;;;;;;;;5078446;28;20047;-79
2023/11/17 12:43:37;;;;;;;0.80;0.80;;;;;;;;;;5094012;28;20107;-80
2023/11/17 12:46:03;;;;;;;0.80;0.80;;;;;;;;;;5092550;28;20097;-79
2023/11/17 12:48:29;;;;;;;0.60;0.60;;;;;;;;;;5102106;28;20035;-79
2023/11/17 12:50:57;;;;;;;0.60;0.60;;;;;;;;;;5109954;28;20036;-81
2023/11/17 12:53:37;;;;;;;0.77;0.77;;;;;;;;;;5094809;28;20008;-81
2023/11/17 12:59:37;;;;;;;1.08;1.00;;;;;;;;;;5055868;28;20029;-82
2023/11/17 13:02:03;;;;;;;0.95;0.77;;;;;;;;;;5126027;28;20080;-82
2023/11/17 13:04:35;;;;;;;0.80;0.80;;;;;;;;;;5106930;28;20024;-81
2023/11/17 13:07:01;;;;;;;1.08;0.98;;;;;;;;;;5113033;28;20028;-80
2023/11/17 13:09:28;;;;;;;0.90;0.90;;;;;;;;;;5111773;28;20032;-80
2023/11/17 13:11:54;;;;;;;0.90;0.90;;;;;;;;;;5089448;28;20016;-82
2023/11/17 13:14:21;;;;;;;1.17;0.80;;;;;;;;;;5114052;28;20012;-81
2023/11/17 13:16:47;;;;;;;1.02;1.02;;;;;;;;;;5099129;28;20110;-80
2023/11/17 13:19:14;;;;;;;0.80;0.80;;;;;;;;;;5115104;28;20031;-82
2023/11/17 13:21:40;;;;;;;0.80;0.80;;;;;;;;;;5125977;28;20107;-82
2023/11/17 13:24:08;;;;;;;0.80;0.80;;;;;;;;;;5113319;28;20024;-82
2023/11/17 13:26:35;;;;;;;0.80;0.80;;;;;;;;;;5098821;28;20016;-82
2023/11/17 13:29:10;;;;;;;0.82;0.65;;;;;;;;;;5097614;28;20051;-84
2023/11/17 13:31:37;;;;;;;0.77;0.77;;;;;;;;;;5103920;28;20134;-81
2023/11/17 13:34:16;;;;;;;0.98;0.93;;;;;;;;;;5096585;28;20053;-81
2023/11/17 13:36:44;;;;;;;1.25;0.95;;;;;;;;;;5084294;28;20032;-81
2023/11/17 13:41:43;;;;;;;1.13;1.05;;;;;;;;;;5094449;28;20028;-80
2023/11/17 13:44:10;;;;;;;1.10;1.00;;;;;;;;;;5095079;28;20024;-81
2023/11/17 13:46:36;;;;;;;1.20;1.10;;;;;;;;;;5095608;28;20105;-80
2023/11/17 13:49:13;;;;;;;0.98;0.98;;;;;;;;;;5089698;28;20074;-81
2023/11/17 13:51:41;;;;;;;1.52;1.42;;;;;;;;;;5089439;28;20039;-79
2023/11/17 13:54:08;;;;;;;1.17;1.08;;;;;;;;;;5101375;28;20061;-81
2023/11/17 13:56:44;;;;;;;1.17;1.13;;;;;;;;;;5109671;28;20056;-79
2023/11/17 13:59:18;;;;;;;1.27;1.17;;;;;;;;;;5095814;28;20159;-80
2023/11/17 14:01:47;;;;;;;1.20;1.20;;;;;;;;;;5094660;28;20032;-79
2023/11/17 14:04:15;;;;;;;1.20;1.10;;;;;;;;;;5093514;28;20027;-81
2023/11/17 14:06:41;;;;;;;1.77;1.67;;;;;;;;;;5100703;28;20028;-79
2023/11/17 14:09:08;;;;;;;1.88;1.60;;;;;;;;;;5106798;28;20123;-78
2023/11/17 14:11:34;;;;;;;1.80;1.67;;;;;;;;;;5097446;28;20035;-78
2023/11/17 14:14:00;;;;;;;1.95;1.70;;;;;;;;;;5087470;28;20108;-80
2023/11/17 14:16:26;;;;;;;1.75;1.65;;;;;;;;;;5082495;28;20016;-81
2023/11/17 14:18:54;;;;;;;2.03;1.92;;;;;;;;;;5087155;28;20036;-80
2023/11/17 14:21:22;;;;;;;2.70;2.17;;;;;;;;;;5094359;28;20031;-81
2023/11/17 14:23:55;;;;;;;2.17;1.88;;;;;;;;;;5094202;28;20478;-81
2023/11/17 14:26:22;;;;;;;2.08;1.88;;;;;;;;;;5084949;28;20031;-81
2023/11/17 14:28:51;;;;;;;2.22;1.75;;;;;;;;;;5085073;28;20029;-81
2023/11/17 14:31:19;;;;;;;1.63;1.50;;;;;;;;;;5085652;28;20372;-81
2023/11/17 14:33:46;;;;;;;1.88;1.77;;;;;;;;;;5086829;28;20032;-80
2023/11/17 14:36:13;;;;;;;2.40;1.90;;;;;;;;;;5096401;28;20028;-80
2023/11/17 14:38:42;;;;;;;1.85;1.67;;;;;;;;;;5093216;28;20020;-80
2023/11/17 14:41:09;;;;;;;1.83;1.73;;;;;;;;;;5086723;28;20024;-80
2023/11/17 14:43:35;;;;;;;2.03;1.83;;;;;;;;;;5087838;28;20829;-82
2023/11/17 14:46:01;;;;;;;2.47;1.98;;;;;;;;;;5098167;28;20035;-79
2023/11/17 14:48:29;;;;;;;3.00;1.95;;;;;;;;;;5098931;28;20082;-81
2023/11/17 14:50:56;;;;;;;1.73;1.60;;;;;;;;;;5096805;28;20016;-80
2023/11/17 14:53:22;;;;;;;2.47;2.28;;;;;;;;;;5105160;28;20012;-80